Time;durP1;ratioP1;P1;durP2;ratioP2;P2;SDS_P1;SDS_P2;PMS_P1;PMS_P2;Temp;Humidity;BMP_temperature;BMP_pressure;BME280_temperature;BME280_humidity;BME280_pressure;Samples;Min_cycle;Max_cycle;Signal;HPM_P1;HPM_P2
2022/08/02 00:02:23;;;;;;;4.53;2.40;;;;;;;;;;7316429;19;154428;-16
2022/08/02 00:04:54;;;;;;;3.60;2.22;;;;;;;;;;7315974;19;162177;-15
2022/08/02 00:07:26;;;;;;;3.72;2.58;;;;;;;;;;7315794;19;162674;-16
2022/08/02 00:10:00;;;;;;;5.00;2.47;;;;;;;;;;7314215;19;154657;-16
2022/08/02 00:12:31;;;;;;;2.80;2.55;;;;;;;;;;7315836;19;154036;-16
2022/08/02 00:15:02;;;;;;;2.85;2.30;;;;;;;;;;7313967;19;162857;-16
2022/08/02 00:17:33;;;;;;;3.28;2.28;;;;;;;;;;7315616;19;163230;-16
2022/08/02 00:20:05;;;;;;;4.90;2.67;;;;;;;;;;7316226;19;154603;-16
2022/08/02 00:22:36;;;;;;;2.50;2.30;;;;;;;;;;7315538;19;153945;-16
2022/08/02 00:25:11;;;;;;;3.95;2.58;;;;;;;;;;7315342;19;162707;-16
2022/08/02 00:27:42;;;;;;;2.83;2.58;;;;;;;;;;7315204;19;163157;-16
2022/08/02 00:30:14;;;;;;;3.17;2.33;;;;;;;;;;7312796;19;155177;-16
2022/08/02 00:32:45;;;;;;;3.83;2.50;;;;;;;;;;7315953;19;154104;-16
2022/08/02 00:35:20;;;;;;;2.63;2.30;;;;;;;;;;7314668;19;134471;-16
2022/08/02 00:37:51;;;;;;;2.28;2.03;;;;;;;;;;7315187;19;162853;-16
2022/08/02 00:40:26;;;;;;;3.05;2.75;;;;;;;;;;7315702;19;154893;-16
2022/08/02 00:43:05;;;;;;;3.10;2.40;;;;;;;;;;7315615;19;154013;-16
2022/08/02 00:45:38;;;;;;;2.65;2.35;;;;;;;;;;7315094;19;161352;-16
2022/08/02 00:48:11;;;;;;;2.78;2.58;;;;;;;;;;7313710;19;162867;-15
2022/08/02 00:50:43;;;;;;;4.60;2.20;;;;;;;;;;7315282;19;154984;-23
2022/08/02 00:53:15;;;;;;;2.63;2.42;;;;;;;;;;7314924;19;154078;-16
2022/08/02 00:55:49;;;;;;;3.20;2.30;;;;;;;;;;7313674;19;162733;-17
2022/08/02 00:58:21;;;;;;;3.17;2.22;;;;;;;;;;7314212;19;162784;-16
2022/08/02 01:00:52;;;;;;;3.13;2.40;;;;;;;;;;7316060;19;155301;-16
2022/08/02 01:03:23;;;;;;;2.47;2.20;;;;;;;;;;7312424;19;154038;-16
2022/08/02 01:05:54;;;;;;;3.63;2.38;;;;;;;;;;7313223;19;162369;-15
2022/08/02 01:08:40;;;;;;;2.55;2.22;;;;;;;;;;7309771;19;162856;-15
2022/08/02 01:11:14;;;;;;;6.70;2.60;;;;;;;;;;7310989;19;154907;-15
2022/08/02 01:13:46;;;;;;;3.85;2.40;;;;;;;;;;7310599;19;154078;-16
2022/08/02 01:16:22;;;;;;;4.00;1.92;;;;;;;;;;7311771;19;162249;-16
2022/08/02 01:18:59;;;;;;;5.30;2.17;;;;;;;;;;7309522;19;163843;-16
2022/08/02 01:22:01;;;;;;;5.22;2.22;;;;;;;;;;7311797;19;154524;-17
2022/08/02 01:24:52;;;;;;;2.60;2.40;;;;;;;;;;7312764;19;154625;-16
2022/08/02 01:27:36;;;;;;;2.58;2.38;;;;;;;;;;7314976;19;162745;-17
2022/08/02 01:30:10;;;;;;;4.22;2.40;;;;;;;;;;7313219;19;163475;-15
2022/08/02 01:32:46;;;;;;;3.67;2.40;;;;;;;;;;7313196;19;154730;-16
2022/08/02 01:35:25;;;;;;;2.50;2.20;;;;;;;;;;7315098;19;153529;-16
2022/08/02 01:38:00;;;;;;;4.22;2.22;;;;;;;;;;7313610;19;162779;-16
2022/08/02 01:40:35;;;;;;;3.25;2.20;;;;;;;;;;7312696;19;163300;-17
2022/08/02 01:43:08;;;;;;;5.25;2.60;;;;;;;;;;7314202;19;154872;-16
2022/08/02 01:45:45;;;;;;;5.45;2.35;;;;;;;;;;7316067;19;154445;-17
2022/08/02 01:48:18;;;;;;;5.00;2.65;;;;;;;;;;7313024;19;162252;-17
2022/08/02 01:50:51;;;;;;;4.13;2.80;;;;;;;;;;7311066;19;163162;-16
2022/08/02 01:53:25;;;;;;;3.28;2.13;;;;;;;;;;7313570;19;154550;-17
2022/08/02 01:55:59;;;;;;;3.13;1.98;;;;;;;;;;7313719;19;154031;-16
2022/08/02 01:58:35;;;;;;;2.20;2.05;;;;;;;;;;7311050;19;162545;-15
2022/08/02 02:01:11;;;;;;;2.28;2.00;;;;;;;;;;7312971;19;163303;-17
2022/08/02 02:03:43;;;;;;;2.42;2.20;;;;;;;;;;7313549;19;154508;-16
2022/08/02 02:06:14;;;;;;;4.03;2.10;;;;;;;;;;7313128;19;154114;-16
2022/08/02 02:08:46;;;;;;;2.95;2.45;;;;;;;;;;7312822;19;162610;-16
2022/08/02 02:11:17;;;;;;;3.57;2.27;;;;;;;;;;7310025;19;163256;-17
2022/08/02 02:13:50;;;;;;;2.42;2.15;;;;;;;;;;7312955;19;154497;-15
2022/08/02 02:16:26;;;;;;;4.70;2.55;;;;;;;;;;7312688;19;154443;-16
2022/08/02 02:18:57;;;;;;;2.63;2.05;;;;;;;;;;7312162;19;162885;-16
2022/08/02 02:21:28;;;;;;;3.13;2.50;;;;;;;;;;7312282;19;163036;-16
2022/08/02 02:24:00;;;;;;;3.05;2.58;;;;;;;;;;7312619;19;154929;-16
2022/08/02 02:26:32;;;;;;;2.92;2.00;;;;;;;;;;7312550;19;153926;-16
2022/08/02 02:29:07;;;;;;;2.95;2.20;;;;;;;;;;7311698;19;162609;-16
2022/08/02 02:31:44;;;;;;;3.13;2.13;;;;;;;;;;7309237;19;162725;-17
2022/08/02 02:34:19;;;;;;;2.88;2.30;;;;;;;;;;7308804;19;154779;-16
2022/08/02 02:36:53;;;;;;;2.95;2.58;;;;;;;;;;7312258;19;154026;-16
2022/08/02 02:39:26;;;;;;;4.13;2.60;;;;;;;;;;7311748;19;162754;-16
2022/08/02 02:41:58;;;;;;;;;;;;;;;;;;7310840;19;162985;-16
2022/08/02 02:44:31;;;;;;;2.42;2.22;;;;;;;;;;7310662;19;154738;-17
2022/08/02 02:47:04;;;;;;;;;;;;;;;;;;7312660;19;154324;-17
2022/08/02 02:49:37;;;;;;;4.40;2.40;;;;;;;;;;7311626;19;162359;-16
2022/08/02 02:52:09;;;;;;;4.13;2.00;;;;;;;;;;7311756;19;162962;-16
2022/08/02 02:54:41;;;;;;;;;;;;;;;;;;7312430;19;154518;-16
2022/08/02 02:57:13;;;;;;;2.22;2.10;;;;;;;;;;7311662;19;153783;-16
2022/08/02 02:59:44;;;;;;;2.78;2.17;;;;;;;;;;7311309;19;162331;-17
2022/08/02 03:02:19;;;;;;;3.55;2.47;;;;;;;;;;7311062;19;162881;-16
2022/08/02 03:04:51;;;;;;;1.95;1.75;;;;;;;;;;7311604;19;154026;-16
2022/08/02 03:07:22;;;;;;;2.53;1.95;;;;;;;;;;7311253;19;154054;-16
2022/08/02 03:09:54;;;;;;;4.03;2.17;;;;;;;;;;7311983;19;162612;-16
2022/08/02 03:12:26;;;;;;;4.22;2.22;;;;;;;;;;7317626;19;163281;-16
2022/08/02 03:15:03;;;;;;;2.60;2.20;;;;;;;;;;7317928;19;154894;-16
2022/08/02 03:17:44;;;;;;;2.45;2.22;;;;;;;;;;7317856;19;154099;-15
2022/08/02 03:20:17;;;;;;;3.00;2.03;;;;;;;;;;7317502;19;163428;-16
2022/08/02 03:22:49;;;;;;;2.42;1.80;;;;;;;;;;7317366;19;163182;-17
2022/08/02 03:25:20;;;;;;;3.33;2.10;;;;;;;;;;7317824;19;154989;-16
2022/08/02 03:27:51;;;;;;;2.08;1.92;;;;;;;;;;7317466;19;153893;-17
2022/08/02 03:30:25;;;;;;;3.10;1.90;;;;;;;;;;7316767;19;162316;-17
2022/08/02 03:32:59;;;;;;;4.80;2.55;;;;;;;;;;7316833;19;162798;-16
2022/08/02 03:35:30;;;;;;;4.07;1.90;;;;;;;;;;7317477;19;154475;-16
2022/08/02 03:38:02;;;;;;;2.38;2.15;;;;;;;;;;7317518;19;153974;-17
2022/08/02 03:40:34;;;;;;;2.50;2.30;;;;;;;;;;7315521;19;162639;-17
2022/08/02 03:43:05;;;;;;;2.42;2.22;;;;;;;;;;7316756;19;163395;-16
2022/08/02 03:45:38;;;;;;;3.15;2.33;;;;;;;;;;7317353;19;155246;-16
2022/08/02 03:48:13;;;;;;;2.78;1.90;;;;;;;;;;7317159;19;154508;-17
2022/08/02 03:50:45;;;;;;;3.10;2.10;;;;;;;;;;7316486;19;162334;-26
2022/08/02 03:53:17;;;;;;;3.47;2.33;;;;;;;;;;7316504;19;163347;-17
2022/08/02 03:55:49;;;;;;;2.42;2.10;;;;;;;;;;7317000;19;154499;-15
2022/08/02 03:58:21;;;;;;;2.07;1.90;;;;;;;;;;7315279;19;154078;-17
2022/08/02 04:00:54;;;;;;;3.25;2.00;;;;;;;;;;7316410;19;162254;-16
2022/08/02 04:03:27;;;;;;;;;;;;;;;;;;7316742;19;162969;-16
2022/08/02 04:05:59;;;;;;;2.47;2.28;;;;;;;;;;7316695;19;154765;-16
2022/08/02 04:08:30;;;;;;;2.20;1.83;;;;;;;;;;7316507;19;153984;-16
2022/08/02 04:13:45;;;;;;;2.80;2.03;;;;;;;;;;7315666;19;162806;-16
2022/08/02 04:16:22;;;;;;;2.25;2.00;;;;;;;;;;7316367;19;154985;-22
2022/08/02 04:19:00;;;;;;;2.58;1.92;;;;;;;;;;7316409;19;153884;-16
2022/08/02 04:21:36;;;;;;;3.28;2.00;;;;;;;;;;7314505;19;162300;-16
2022/08/02 04:24:11;;;;;;;1.98;1.88;;;;;;;;;;7316019;19;162455;-16
2022/08/02 04:26:44;;;;;;;2.33;2.00;;;;;;;;;;7315930;19;154882;-17
2022/08/02 04:29:16;;;;;;;2.40;2.20;;;;;;;;;;7315886;19;154088;-15
2022/08/02 04:31:47;;;;;;;2.30;2.10;;;;;;;;;;7314897;19;162187;-17
2022/08/02 04:34:22;;;;;;;1.98;1.60;;;;;;;;;;7313849;19;163253;-16
2022/08/02 04:36:53;;;;;;;2.42;1.98;;;;;;;;;;7315962;19;154492;-17
2022/08/02 04:39:24;;;;;;;2.03;1.85;;;;;;;;;;7315730;19;154627;-16
2022/08/02 04:41:56;;;;;;;3.50;2.10;;;;;;;;;;7315216;19;162685;-16
2022/08/02 04:44:27;;;;;;;3.33;2.15;;;;;;;;;;7313538;19;162830;-16
2022/08/02 04:47:01;;;;;;;1.85;1.75;;;;;;;;;;7315714;19;154630;-16
2022/08/02 04:49:38;;;;;;;1.83;1.73;;;;;;;;;;7315438;19;153953;-16
2022/08/02 04:52:10;;;;;;;3.42;2.05;;;;;;;;;;7312276;19;163121;-17
2022/08/02 04:54:41;;;;;;;3.20;2.30;;;;;;;;;;7314878;19;162918;-16
2022/08/02 04:59:55;;;;;;;2.67;1.73;;;;;;;;;;7313014;19;154095;-16
2022/08/02 05:02:27;;;;;;;1.92;1.83;;;;;;;;;;7314514;19;162109;-16
2022/08/02 05:05:01;;;;;;;2.10;1.90;;;;;;;;;;7314567;19;163583;-16
2022/08/02 05:07:33;;;;;;;2.03;1.85;;;;;;;;;;7315092;19;154533;-16
2022/08/02 05:10:05;;;;;;;2.10;1.90;;;;;;;;;;7313870;19;153847;-16
2022/08/02 05:12:36;;;;;;;2.22;2.00;;;;;;;;;;7312794;19;162709;-17
2022/08/02 05:15:09;;;;;;;5.22;2.17;;;;;;;;;;7314267;19;162409;-16
2022/08/02 05:17:39;;;;;;;;;;;;;;;;;;7315310;19;154476;-16
2022/08/02 05:20:14;;;;;;;1.95;1.75;;;;;;;;;;7314424;19;153650;-16
2022/08/02 05:22:46;;;;;;;3.25;2.38;;;;;;;;;;7313810;19;162756;-16
2022/08/02 05:25:17;;;;;;;3.10;2.80;;;;;;;;;;7314181;19;162802;-16
2022/08/02 05:27:48;;;;;;;2.85;2.58;;;;;;;;;;7314139;19;154473;-17
2022/08/02 05:30:20;;;;;;;4.70;2.83;;;;;;;;;;7314178;19;154022;-17
2022/08/02 05:32:53;;;;;;;5.95;3.25;;;;;;;;;;7310953;19;162792;-16
2022/08/02 05:35:26;;;;;;;4.88;3.15;;;;;;;;;;7312176;19;163227;-16
2022/08/02 05:37:58;;;;;;;4.97;3.25;;;;;;;;;;7313917;19;154496;-16
2022/08/02 05:40:29;;;;;;;5.05;3.30;;;;;;;;;;7313777;19;154015;-16
2022/08/02 05:43:00;;;;;;;4.57;3.72;;;;;;;;;;7315132;19;162961;-16
2022/08/02 05:45:36;;;;;;;6.63;3.90;;;;;;;;;;7313343;19;163375;-16
2022/08/02 05:48:08;;;;;;;7.47;3.75;;;;;;;;;;7314877;19;154977;-17
2022/08/02 05:50:50;;;;;;;6.70;3.53;;;;;;;;;;7312868;19;153974;-16
2022/08/02 05:53:29;;;;;;;8.27;4.10;;;;;;;;;;7308270;19;163453;-16
2022/08/02 05:56:09;;;;;;;6.22;3.90;;;;;;;;;;7309679;19;162333;-16
2022/08/02 05:58:50;;;;;;;5.78;3.75;;;;;;;;;;7309694;19;154593;-16
2022/08/02 06:01:29;;;;;;;6.80;3.50;;;;;;;;;;7311494;19;154570;-17
2022/08/02 06:04:02;;;;;;;7.78;3.80;;;;;;;;;;7311527;19;162625;-16
2022/08/02 06:06:37;;;;;;;9.65;3.97;;;;;;;;;;7311570;19;162743;-16
2022/08/02 06:09:16;;;;;;;4.60;3.40;;;;;;;;;;7311725;19;155059;-16
2022/08/02 06:11:51;;;;;;;6.95;3.63;;;;;;;;;;7311634;19;154030;-16
2022/08/02 06:14:23;;;;;;;6.13;3.85;;;;;;;;;;7312499;19;162156;-16
2022/08/02 06:16:55;;;;;;;5.35;3.53;;;;;;;;;;7312279;19;163371;-16
2022/08/02 06:19:27;;;;;;;5.78;3.75;;;;;;;;;;7312595;19;154117;-15
2022/08/02 06:22:13;;;;;;;5.97;4.07;;;;;;;;;;7312721;19;153960;-16
2022/08/02 06:24:46;;;;;;;6.65;3.90;;;;;;;;;;7312237;19;162646;-16
2022/08/02 06:27:18;;;;;;;5.38;4.40;;;;;;;;;;7312161;19;162774;-16
2022/08/02 06:29:50;;;;;;;5.93;3.85;;;;;;;;;;7312162;19;154510;-16
2022/08/02 06:32:22;;;;;;;5.35;3.75;;;;;;;;;;7311827;19;153878;-16
2022/08/02 06:34:53;;;;;;;6.70;4.28;;;;;;;;;;7309300;19;162986;-16
2022/08/02 06:37:43;;;;;;;5.85;4.32;;;;;;;;;;7310664;19;163358;-15
2022/08/02 06:40:29;;;;;;;8.15;3.90;;;;;;;;;;7312567;19;155139;-16
2022/08/02 06:43:12;;;;;;;7.80;4.05;;;;;;;;;;7312003;19;154482;-16
2022/08/02 06:45:43;;;;;;;7.03;4.45;;;;;;;;;;7315100;19;162380;-16
2022/08/02 06:48:15;;;;;;;6.30;4.47;;;;;;;;;;7317863;19;162778;-16
2022/08/02 06:50:46;;;;;;;7.32;4.63;;;;;;;;;;7318531;19;154810;-16
2022/08/02 06:53:20;;;;;;;6.57;4.43;;;;;;;;;;7317577;19;153951;-16
2022/08/02 06:55:51;;;;;;;8.38;4.63;;;;;;;;;;7318159;19;162718;-16
2022/08/02 06:58:23;;;;;;;7.15;4.70;;;;;;;;;;7316060;19;162928;-16
2022/08/02 07:00:54;;;;;;;6.15;4.57;;;;;;;;;;7317848;19;154908;-16
2022/08/02 07:03:26;;;;;;;7.03;5.07;;;;;;;;;;7316529;19;154539;-16
2022/08/02 07:05:57;;;;;;;7.38;4.38;;;;;;;;;;7317944;19;162157;-16
2022/08/02 07:08:32;;;;;;;5.90;5.18;;;;;;;;;;7317542;19;162897;-16
2022/08/02 07:11:03;;;;;;;6.88;4.72;;;;;;;;;;7317903;19;155404;-16
2022/08/02 07:13:35;;;;;;;6.72;4.63;;;;;;;;;;7316744;19;153946;-16
2022/08/02 07:16:09;;;;;;;6.78;4.70;;;;;;;;;;7317205;19;162325;-17
2022/08/02 07:18:40;;;;;;;8.00;4.75;;;;;;;;;;7317136;19;162836;-16
2022/08/02 07:21:11;;;;;;;7.53;4.63;;;;;;;;;;7316302;19;154682;-16
2022/08/02 07:23:45;;;;;;;7.70;5.22;;;;;;;;;;7317574;19;154384;-16
2022/08/02 07:26:16;;;;;;;6.80;5.10;;;;;;;;;;7317302;19;162702;-17
2022/08/02 07:28:47;;;;;;;8.63;5.28;;;;;;;;;;7316769;19;163365;-18
2022/08/02 07:31:19;;;;;;;7.68;5.13;;;;;;;;;;7317466;19;155160;-16
2022/08/02 07:33:50;;;;;;;5.95;4.97;;;;;;;;;;7315847;19;154012;-15
2022/08/02 07:36:21;;;;;;;6.63;5.00;;;;;;;;;;7316649;19;162881;-16
2022/08/02 07:38:56;;;;;;;9.25;4.93;;;;;;;;;;7316571;19;162922;-17
2022/08/02 07:41:28;;;;;;;8.02;5.95;;;;;;;;;;7317121;19;154821;-16
2022/08/02 07:44:00;;;;;;;7.70;5.80;;;;;;;;;;7316962;19;154347;-16
2022/08/02 07:46:32;;;;;;;6.47;5.68;;;;;;;;;;7314701;19;162925;-18
2022/08/02 07:49:03;;;;;;;15.02;6.63;;;;;;;;;;7316296;19;163526;-15
2022/08/02 07:51:35;;;;;;;7.45;6.07;;;;;;;;;;7316946;19;154544;-15
2022/08/02 07:54:09;;;;;;;8.75;5.45;;;;;;;;;;7315523;19;154920;-16
2022/08/02 07:56:40;;;;;;;7.72;6.65;;;;;;;;;;7313780;19;162284;-16
2022/08/02 07:59:11;;;;;;;7.40;6.10;;;;;;;;;;7315526;19;162772;-16
2022/08/02 08:01:43;;;;;;;10.75;6.70;;;;;;;;;;7316169;19;154978;-16
2022/08/02 08:04:14;;;;;;;11.88;7.35;;;;;;;;;;7316022;19;153953;-16
2022/08/02 08:06:48;;;;;;;9.27;7.10;;;;;;;;;;7315563;19;162673;-16
2022/08/02 08:09:22;;;;;;;9.73;7.28;;;;;;;;;;7315368;19;162730;-16
2022/08/02 08:11:53;;;;;;;8.13;6.57;;;;;;;;;;7316642;19;155051;-16
2022/08/02 08:14:24;;;;;;;10.10;6.78;;;;;;;;;;7314346;19;154049;-16
2022/08/02 08:16:56;;;;;;;11.10;7.65;;;;;;;;;;7315859;19;162706;-16
2022/08/02 08:19:27;;;;;;;11.60;7.72;;;;;;;;;;7314849;19;162695;-16
2022/08/02 08:21:59;;;;;;;13.85;8.20;;;;;;;;;;7315393;19;155139;-16
2022/08/02 08:24:33;;;;;;;11.33;8.03;;;;;;;;;;7315528;19;154058;-16
2022/08/02 08:27:13;;;;;;;9.20;7.18;;;;;;;;;;7313621;19;162303;-15
2022/08/02 08:29:44;;;;;;;9.93;7.18;;;;;;;;;;7314976;19;162908;-16
2022/08/02 08:32:16;;;;;;;12.30;7.78;;;;;;;;;;7315286;19;154539;-16
2022/08/02 08:34:48;;;;;;;9.98;7.43;;;;;;;;;;7312867;19;154495;-16
2022/08/02 08:37:19;;;;;;;11.35;7.85;;;;;;;;;;7315106;19;162826;-16
2022/08/02 08:39:53;;;;;;;9.95;8.32;;;;;;;;;;7314933;19;162750;-16
2022/08/02 08:42:24;;;;;;;13.23;7.60;;;;;;;;;;7315472;19;154621;-17
2022/08/02 08:44:57;;;;;;;10.98;7.93;;;;;;;;;;7314800;19;154595;-16
2022/08/02 08:47:35;;;;;;;11.75;7.90;;;;;;;;;;7314452;19;162893;-16
2022/08/02 08:50:08;;;;;;;10.25;7.57;;;;;;;;;;7314480;19;162799;-16
2022/08/02 08:52:48;;;;;;;11.20;7.57;;;;;;;;;;7314666;19;154514;-16
2022/08/02 08:55:25;;;;;;;10.68;7.90;;;;;;;;;;7312804;19;153994;-16
2022/08/02 08:57:57;;;;;;;13.35;7.65;;;;;;;;;;7314493;19;162642;-16
2022/08/02 09:00:28;;;;;;;;;;;;;;;;;;7314789;19;162872;-16
2022/08/02 09:03:00;;;;;;;11.15;8.27;;;;;;;;;;7314737;19;154619;-16
2022/08/02 09:05:31;;;;;;;13.13;9.20;;;;;;;;;;7315680;19;154027;-16
2022/08/02 09:08:02;;;;;;;13.25;8.35;;;;;;;;;;7313541;19;162238;-16
2022/08/02 09:10:38;;;;;;;15.60;9.63;;;;;;;;;;7313985;19;162882;-16
2022/08/02 09:13:19;;;;;;;14.13;9.82;;;;;;;;;;7313097;19;155074;-16
2022/08/02 09:15:57;;;;;;;10.57;8.70;;;;;;;;;;7312250;19;154019;-16
2022/08/02 09:18:35;;;;;;;13.90;10.18;;;;;;;;;;7313331;19;162560;-16
2022/08/02 09:21:08;;;;;;;14.60;9.60;;;;;;;;;;7313440;19;162460;-16
2022/08/02 09:23:41;;;;;;;10.95;9.68;;;;;;;;;;7313885;19;154533;-17
2022/08/02 09:26:17;;;;;;;14.77;10.10;;;;;;;;;;7313334;19;154117;-17
2022/08/02 09:28:51;;;;;;;11.95;8.77;;;;;;;;;;7312935;19;163475;-16
2022/08/02 09:31:25;;;;;;;14.55;9.85;;;;;;;;;;7313207;19;162750;-17
2022/08/02 09:33:58;;;;;;;15.82;10.23;;;;;;;;;;7312084;19;154047;-16
2022/08/02 09:36:40;;;;;;;13.52;9.98;;;;;;;;;;7311476;19;154403;-17
2022/08/02 09:39:13;;;;;;;10.45;8.77;;;;;;;;;;7313099;19;163791;-16
2022/08/02 09:41:47;;;;;;;11.68;8.32;;;;;;;;;;7313063;19;162687;-17
2022/08/02 09:44:19;;;;;;;11.10;8.40;;;;;;;;;;7313062;19;154825;-17
2022/08/02 09:46:50;;;;;;;12.45;8.45;;;;;;;;;;7312977;19;154029;-17
2022/08/02 09:49:21;;;;;;;12.13;7.68;;;;;;;;;;7312556;19;162672;-17
2022/08/02 09:51:56;;;;;;;12.75;8.00;;;;;;;;;;7312950;19;162859;-16
2022/08/02 09:54:31;;;;;;;12.00;8.52;;;;;;;;;;7312686;19;154602;-17
2022/08/02 09:57:05;;;;;;;11.57;8.18;;;;;;;;;;7312422;19;154087;-16
2022/08/02 09:59:37;;;;;;;10.27;7.90;;;;;;;;;;7312379;19;162867;-16
2022/08/02 10:02:13;;;;;;;12.15;8.85;;;;;;;;;;7311954;19;163304;-17
2022/08/02 10:04:44;;;;;;;11.20;7.95;;;;;;;;;;7312433;19;154474;-15
2022/08/02 10:07:16;;;;;;;11.10;7.95;;;;;;;;;;7311693;19;153471;-16
2022/08/02 10:09:48;;;;;;;10.30;7.65;;;;;;;;;;7311800;19;162425;-16
2022/08/02 10:12:22;;;;;;;11.00;7.32;;;;;;;;;;7311567;19;163640;-16
2022/08/02 10:14:54;;;;;;;9.82;6.68;;;;;;;;;;7311295;19;154834;-16
2022/08/02 10:17:26;;;;;;;7.63;6.00;;;;;;;;;;7311418;19;153956;-16
2022/08/02 10:19:57;;;;;;;8.52;6.20;;;;;;;;;;7309567;19;162912;-16
2022/08/02 10:22:29;;;;;;;10.55;6.78;;;;;;;;;;7311462;19;163222;-16
2022/08/02 10:25:00;;;;;;;7.80;6.33;;;;;;;;;;7311579;19;155055;-16
2022/08/02 10:27:35;;;;;;;11.38;6.68;;;;;;;;;;7308368;19;153930;-17
2022/08/02 10:30:19;;;;;;;13.70;6.22;;;;;;;;;;7311070;19;162169;-16
2022/08/02 10:32:52;;;;;;;8.63;6.95;;;;;;;;;;7310845;19;163260;-16
2022/08/02 10:35:26;;;;;;;9.82;6.57;;;;;;;;;;7310584;19;154559;-16
2022/08/02 10:38:02;;;;;;;6.70;5.95;;;;;;;;;;7311404;19;154034;-16
2022/08/02 10:40:49;;;;;;;10.48;6.28;;;;;;;;;;7311231;19;162346;-16
2022/08/02 10:43:51;;;;;;;14.95;6.68;;;;;;;;;;7310868;19;163076;-16
2022/08/02 10:46:25;;;;;;;8.93;6.25;;;;;;;;;;7310753;19;154403;-16
2022/08/02 10:49:14;;;;;;;7.78;6.35;;;;;;;;;;7311283;19;154069;-16
2022/08/02 10:52:10;;;;;;;10.27;6.25;;;;;;;;;;7310524;19;162405;-16
2022/08/02 10:54:43;;;;;;;7.53;5.88;;;;;;;;;;7310405;19;162890;-16
2022/08/02 10:57:23;;;;;;;10.30;6.07;;;;;;;;;;7308645;19;154553;-15
2022/08/02 10:59:58;;;;;;;11.52;6.15;;;;;;;;;;7310654;19;153964;-16
2022/08/02 11:02:39;;;;;;;10.63;6.30;;;;;;;;;;7310181;19;162251;-17
2022/08/02 11:05:14;;;;;;;10.45;5.68;;;;;;;;;;7310438;19;162685;-17
2022/08/02 11:07:47;;;;;;;10.88;6.07;;;;;;;;;;7309228;19;155081;-16
2022/08/02 11:10:40;;;;;;;11.02;5.85;;;;;;;;;;7308869;19;154143;-16
2022/08/02 11:13:13;;;;;;;7.25;6.38;;;;;;;;;;7309544;19;162377;-16
2022/08/02 11:16:00;;;;;;;8.75;5.97;;;;;;;;;;7309239;19;162883;-17
2022/08/02 11:19:01;;;;;;;7.28;5.65;;;;;;;;;;7310318;19;154056;-16
2022/08/02 11:21:34;;;;;;;9.13;6.03;;;;;;;;;;7308635;19;154621;-16
2022/08/02 11:24:27;;;;;;;9.85;5.68;;;;;;;;;;7309813;19;162216;-16
2022/08/02 11:26:59;;;;;;;11.00;6.72;;;;;;;;;;7309789;19;163223;-17
2022/08/02 11:29:39;;;;;;;10.83;5.70;;;;;;;;;;7310066;19;154911;-16
2022/08/02 11:32:18;;;;;;;7.60;5.22;;;;;;;;;;7314905;19;154098;-16
2022/08/02 11:34:53;;;;;;;11.43;5.82;;;;;;;;;;7313046;19;162240;-16
2022/08/02 11:37:31;;;;;;;10.75;5.55;;;;;;;;;;7314795;19;163250;-16
2022/08/02 11:40:02;;;;;;;8.13;5.05;;;;;;;;;;7316652;19;154463;-16
2022/08/02 11:42:34;;;;;;;8.38;5.45;;;;;;;;;;7316735;19;154484;-16
2022/08/02 11:45:07;;;;;;;6.70;4.55;;;;;;;;;;7315910;19;162592;-16
2022/08/02 11:47:50;;;;;;;14.45;5.78;;;;;;;;;;7315810;19;163333;-16
2022/08/02 11:50:23;;;;;;;;;;;;;;;;;;7316829;19;154671;-16
2022/08/02 11:52:55;;;;;;;8.73;5.10;;;;;;;;;;7316316;19;153707;-16
2022/08/02 11:55:29;;;;;;;7.50;5.15;;;;;;;;;;7315714;19;162175;-16
2022/08/02 11:58:01;;;;;;;9.55;5.25;;;;;;;;;;7313352;19;163227;-16
2022/08/02 12:00:32;;;;;;;8.07;5.20;;;;;;;;;;7316161;19;154786;-16
2022/08/02 12:03:07;;;;;;;7.88;4.55;;;;;;;;;;7315235;19;153916;-16
2022/08/02 12:05:38;;;;;;;8.13;4.32;;;;;;;;;;7315823;19;162227;-16
2022/08/02 12:08:23;;;;;;;8.45;4.75;;;;;;;;;;7314179;19;162807;-16
2022/08/02 12:10:54;;;;;;;12.25;4.53;;;;;;;;;;7313249;19;154754;-16
2022/08/02 12:13:26;;;;;;;7.72;4.95;;;;;;;;;;7314067;19;154081;-16
2022/08/02 12:19:17;;;;;;;7.63;4.70;;;;;;;;;;7314716;19;162564;-16
2022/08/02 12:21:36;;;;;;;9.38;4.55;;;;;;;;;;7315753;19;154836;-16
2022/08/02 12:24:08;;;;;;;8.18;4.60;;;;;;;;;;7315413;19;154001;-16
2022/08/02 12:26:46;;;;;;;5.78;4.55;;;;;;;;;;7314889;19;162657;-16
2022/08/02 12:29:17;;;;;;;8.20;5.35;;;;;;;;;;7313209;19;163002;-16
2022/08/02 12:31:50;;;;;;;6.55;5.00;;;;;;;;;;7315262;19;155133;-16
2022/08/02 12:34:23;;;;;;;;;;;;;;;;;;7314030;19;154432;-16
2022/08/02 12:37:05;;;;;;;;;;;;;;;;;;7314675;19;162834;-16
2022/08/02 12:39:42;;;;;;;8.68;4.65;;;;;;;;;;7311833;19;162976;-16
2022/08/02 12:42:15;;;;;;;9.38;4.72;;;;;;;;;;7314467;19;155188;-16
2022/08/02 12:44:54;;;;;;;9.23;4.47;;;;;;;;;;7313766;19;153957;-16
2022/08/02 12:47:25;;;;;;;6.45;4.25;;;;;;;;;;7314213;19;162380;-16
2022/08/02 12:50:19;;;;;;;7.28;4.63;;;;;;;;;;7314162;19;162782;-17
2022/08/02 12:53:04;;;;;;;7.95;4.57;;;;;;;;;;7314161;19;154453;-16
2022/08/02 12:55:39;;;;;;;6.47;4.80;;;;;;;;;;7314198;19;154148;-17
2022/08/02 12:58:11;;;;;;;6.88;4.47;;;;;;;;;;7312312;19;162351;-17
2022/08/02 13:00:42;;;;;;;5.45;4.25;;;;;;;;;;7313711;19;162886;-16
2022/08/02 13:03:14;;;;;;;7.30;4.40;;;;;;;;;;7314026;19;154492;-16
2022/08/02 13:05:48;;;;;;;6.25;4.28;;;;;;;;;;7314221;19;154582;-17
2022/08/02 13:08:20;;;;;;;8.75;4.15;;;;;;;;;;7313078;19;162338;-16
2022/08/02 13:10:51;;;;;;;8.50;4.45;;;;;;;;;;7313502;19;163503;-15
2022/08/02 13:13:23;;;;;;;7.68;4.32;;;;;;;;;;7312337;19;154645;-15
2022/08/02 13:15:54;;;;;;;8.07;3.50;;;;;;;;;;7313874;19;153660;-16
2022/08/02 13:18:25;;;;;;;8.25;4.22;;;;;;;;;;7311309;19;162775;-14
2022/08/02 13:20:59;;;;;;;9.38;3.58;;;;;;;;;;7313243;19;162824;-14
2022/08/02 13:23:30;;;;;;;5.35;3.30;;;;;;;;;;7313536;19;155099;-15
2022/08/02 13:26:02;;;;;;;6.18;3.72;;;;;;;;;;7311829;19;153885;-15
2022/08/02 13:28:34;;;;;;;4.78;3.70;;;;;;;;;;7312289;19;162134;-17
2022/08/02 13:31:05;;;;;;;7.63;4.10;;;;;;;;;;7313051;19;162884;-17
2022/08/02 13:33:50;;;;;;;8.40;3.58;;;;;;;;;;7311936;19;154448;-17
2022/08/02 13:36:24;;;;;;;162.05;51.30;;;;;;;;;;7313104;19;154010;-16
2022/08/02 13:38:55;;;;;;;287.67;102.05;;;;;;;;;;7310393;19;161790;-17
2022/08/02 13:41:26;;;;;;;320.48;119.88;;;;;;;;;;7312906;19;162368;-17
2022/08/02 13:43:57;;;;;;;272.75;101.88;;;;;;;;;;7311364;19;154582;-17
2022/08/02 13:46:34;;;;;;;251.10;86.18;;;;;;;;;;7312350;19;154221;-17
2022/08/02 13:49:05;;;;;;;224.43;85.43;;;;;;;;;;7310271;19;162920;-16
2022/08/02 13:51:39;;;;;;;229.73;79.75;;;;;;;;;;7312136;19;162810;-17
2022/08/02 13:54:10;;;;;;;217.77;78.05;;;;;;;;;;7310854;19;154856;-17
2022/08/02 13:56:41;;;;;;;199.02;73.78;;;;;;;;;;7310466;19;154116;-16
2022/08/02 13:59:13;;;;;;;190.95;69.60;;;;;;;;;;7309654;19;162151;-16
2022/08/02 14:01:44;;;;;;;176.93;65.67;;;;;;;;;;7312085;19;163212;-16
2022/08/02 14:04:16;;;;;;;166.73;63.42;;;;;;;;;;7310598;19;154499;-17
2022/08/02 14:06:50;;;;;;;158.95;59.75;;;;;;;;;;7310779;19;154469;-17
2022/08/02 14:09:21;;;;;;;161.02;60.65;;;;;;;;;;7311808;19;162806;-17
2022/08/02 14:11:52;;;;;;;148.38;54.45;;;;;;;;;;7311115;19;163202;-18
2022/08/02 14:14:23;;;;;;;140.95;51.95;;;;;;;;;;7311786;19;154538;-17
2022/08/02 14:16:55;;;;;;;140.73;51.92;;;;;;;;;;7311812;19;154067;-17
2022/08/02 14:19:26;;;;;;;118.30;44.53;;;;;;;;;;7309127;19;162320;-17
2022/08/02 14:22:00;;;;;;;120.43;45.80;;;;;;;;;;7311266;19;163221;-17
2022/08/02 14:24:31;;;;;;;116.10;43.72;;;;;;;;;;7311704;19;154546;-17
2022/08/02 14:27:03;;;;;;;124.40;46.90;;;;;;;;;;7309854;19;154003;-16
2022/08/02 14:29:35;;;;;;;115.18;45.20;;;;;;;;;;7309491;19;162214;-17
2022/08/02 14:32:07;;;;;;;122.97;44.35;;;;;;;;;;7311143;19;163354;-16
2022/08/02 14:34:38;;;;;;;112.73;42.87;;;;;;;;;;7308808;19;154702;-14
2022/08/02 14:37:12;;;;;;;130.80;44.70;;;;;;;;;;7311016;19;154030;-17
2022/08/02 14:39:43;;;;;;;117.93;44.42;;;;;;;;;;7308629;19;162208;-16
2022/08/02 14:42:14;;;;;;;115.38;45.28;;;;;;;;;;7310492;19;163391;-16
2022/08/02 14:44:46;;;;;;;109.10;43.20;;;;;;;;;;7310979;19;155080;-17
2022/08/02 14:47:17;;;;;;;115.18;42.60;;;;;;;;;;7311189;19;154063;-16
2022/08/02 14:49:48;;;;;;;107.15;41.97;;;;;;;;;;7310465;19;162861;-16
2022/08/02 14:52:23;;;;;;;88.70;32.30;;;;;;;;;;7310317;19;162736;-16
2022/08/02 14:54:54;;;;;;;87.07;35.42;;;;;;;;;;7310793;19;155102;-16
2022/08/02 14:57:25;;;;;;;80.07;30.77;;;;;;;;;;7310458;19;154095;-16
2022/08/02 14:59:59;;;;;;;84.35;32.47;;;;;;;;;;7307639;19;162205;-16
2022/08/02 15:02:30;;;;;;;88.10;32.22;;;;;;;;;;7310407;19;163306;-16
2022/08/02 15:05:01;;;;;;;74.32;29.02;;;;;;;;;;7310178;19;155123;-15
2022/08/02 15:07:35;;;;;;;68.80;28.38;;;;;;;;;;7316551;19;154035;-15
2022/08/02 15:10:09;;;;;;;70.32;26.60;;;;;;;;;;7316925;19;162914;-15
2022/08/02 15:12:41;;;;;;;69.57;25.67;;;;;;;;;;7316596;19;163254;-14
2022/08/02 15:15:12;;;;;;;63.85;24.65;;;;;;;;;;7315772;19;155822;-15